createdAt,value
2022-10-20T00:00:15.086Z,7.38
2022-10-20T00:03:17.869Z,6.22
2022-10-20T00:06:23.299Z,6.17
2022-10-20T00:09:26.094Z,6.23
2022-10-20T00:12:28.874Z,7.03
2022-10-20T00:15:32.880Z,7.63
2022-10-20T00:18:36.374Z,6.23
2022-10-20T00:21:38.972Z,5.67
2022-10-20T00:24:41.825Z,5.50
2022-10-20T00:27:44.658Z,6.60
2022-10-20T00:30:48.671Z,6.85
2022-10-20T00:33:51.477Z,5.63
2022-10-20T00:36:54.077Z,5.77
2022-10-20T00:39:56.817Z,5.88
2022-10-20T00:42:59.547Z,6.65
2022-10-20T00:46:03.541Z,6.35
2022-10-20T00:49:12.921Z,6.40
2022-10-20T00:52:18.511Z,7.03
2022-10-20T00:55:25.567Z,6.53
2022-10-20T00:58:29.803Z,6.32
2022-10-20T01:01:34.248Z,7.15
2022-10-20T01:04:39.106Z,5.80
2022-10-20T01:07:41.925Z,6.57
2022-10-20T01:10:52.603Z,6.15
2022-10-20T01:14:09.240Z,6.03
2022-10-20T01:17:23.745Z,5.60
2022-10-20T01:20:49.955Z,6.63
2022-10-20T01:24:12.895Z,8.47
2022-10-20T01:27:32.011Z,6.53
2022-10-20T01:30:40.033Z,6.78
2022-10-20T01:33:47.684Z,5.13
2022-10-20T01:40:27.229Z,6.00
2022-10-20T01:43:34.882Z,6.18
2022-10-20T01:46:41.079Z,5.70
2022-10-20T01:49:45.370Z,6.15
2022-10-20T01:52:48.350Z,6.10
2022-10-20T01:55:53.096Z,6.40
2022-10-20T01:59:18.266Z,6.05
2022-10-20T02:02:35.949Z,5.95
2022-10-20T02:05:51.541Z,6.43
2022-10-20T02:08:59.362Z,7.50
2022-10-20T02:12:05.716Z,5.03
2022-10-20T02:15:13.267Z,5.90
2022-10-20T02:18:20.966Z,5.85
2022-10-20T02:21:23.973Z,6.95
2022-10-20T02:24:30.591Z,7.43
2022-10-20T02:27:38.252Z,7.17
2022-10-20T02:30:43.058Z,6.30
2022-10-20T02:33:47.249Z,6.35
2022-10-20T02:36:49.863Z,7.07
2022-10-20T02:39:52.667Z,6.13
2022-10-20T02:42:55.271Z,5.63
2022-10-20T02:45:59.326Z,5.50
2022-10-20T02:49:02.152Z,5.35
2022-10-20T02:52:04.869Z,6.30
2022-10-20T02:55:08.233Z,5.43
2022-10-20T02:58:10.899Z,6.80
2022-10-20T03:01:15.033Z,7.90
2022-10-20T03:04:17.933Z,6.43
2022-10-20T03:07:20.649Z,8.40
2022-10-20T03:10:23.469Z,7.23
2022-10-20T03:13:26.231Z,6.87
2022-10-20T03:16:30.469Z,6.65
2022-10-20T03:19:33.239Z,6.50
2022-10-20T03:22:35.886Z,6.95
2022-10-20T03:25:38.601Z,8.57
2022-10-20T03:28:41.989Z,6.03
2022-10-20T03:31:46.144Z,7.80
2022-10-20T03:34:48.925Z,7.65
2022-10-20T03:37:51.533Z,7.15
2022-10-20T03:40:54.321Z,6.80
2022-10-20T03:43:57.013Z,7.83
2022-10-20T03:47:01.201Z,8.30
2022-10-20T03:53:13.869Z,7.93
2022-10-20T03:56:19.778Z,8.70
2022-10-20T03:59:24.440Z,6.80
2022-10-20T04:02:37.335Z,9.02
2022-10-20T04:05:40.615Z,6.20
2022-10-20T04:08:43.287Z,11.70
2022-10-20T04:11:46.093Z,15.77
2022-10-20T04:14:48.749Z,14.65
2022-10-20T04:17:52.878Z,10.88
2022-10-20T04:20:55.515Z,8.52
2022-10-20T04:23:58.111Z,11.60
2022-10-20T04:27:00.894Z,10.30
2022-10-20T04:30:03.517Z,7.18
2022-10-20T04:33:07.625Z,7.18
2022-10-20T04:36:13.474Z,9.68
2022-10-20T04:39:16.566Z,7.60
2022-10-20T04:42:19.354Z,7.43
2022-10-20T04:45:21.992Z,7.50
2022-10-20T04:48:26.303Z,6.50
2022-10-20T04:51:29.019Z,6.55
2022-10-20T04:54:31.747Z,7.17
2022-10-20T04:57:35.374Z,7.40
2022-10-20T05:00:39.961Z,5.88
2022-10-20T05:03:44.492Z,6.25
2022-10-20T05:06:47.289Z,6.72
2022-10-20T05:09:49.890Z,7.50
2022-10-20T05:12:52.616Z,7.10
2022-10-20T05:15:55.210Z,7.45
2022-10-20T05:18:59.181Z,7.72
2022-10-20T05:22:03.003Z,7.50
2022-10-20T05:25:31.378Z,7.67
2022-10-20T05:28:29.045Z,7.73
2022-10-20T05:31:31.782Z,7.70
2022-10-20T05:34:35.901Z,8.45
2022-10-20T05:37:38.626Z,7.55
2022-10-20T05:40:41.193Z,7.20
2022-10-20T05:43:44.088Z,9.47
2022-10-20T05:46:46.915Z,6.63
2022-10-20T05:49:50.929Z,7.00
2022-10-20T05:52:54.020Z,8.80
2022-10-20T05:55:56.643Z,9.43
2022-10-20T05:58:59.803Z,9.13
2022-10-20T06:02:02.420Z,9.02
2022-10-20T06:05:06.559Z,8.45
2022-10-20T06:08:09.344Z,9.40
2022-10-20T06:11:13.390Z,8.33
2022-10-20T06:14:17.374Z,7.77
2022-10-20T06:17:22.688Z,8.70
2022-10-20T06:20:26.894Z,8.35
2022-10-20T06:23:29.916Z,9.18
2022-10-20T06:26:36.349Z,9.10
2022-10-20T06:29:39.224Z,9.57
2022-10-20T06:32:41.930Z,10.43
2022-10-20T06:35:45.878Z,8.90
2022-10-20T06:38:49.289Z,9.90
2022-10-20T06:41:53.969Z,9.80
2022-10-20T06:44:56.793Z,10.27
2022-10-20T06:47:59.471Z,9.65
2022-10-20T06:51:05.946Z,10.60
2022-10-20T06:54:09.571Z,11.65
2022-10-20T06:57:12.202Z,11.10
2022-10-20T07:00:15.848Z,13.97
2022-10-20T07:03:20.384Z,12.63
2022-10-20T07:06:26.178Z,10.63
2022-10-20T07:09:28.984Z,10.13
2022-10-20T07:12:31.679Z,11.27
2022-10-20T07:15:34.461Z,9.47
2022-10-20T07:18:37.455Z,12.55
2022-10-20T07:21:45.308Z,10.75
2022-10-20T07:24:48.520Z,11.77
2022-10-20T07:27:51.191Z,13.13
2022-10-20T07:30:53.948Z,12.27
2022-10-20T07:34:07.112Z,8.52
2022-10-20T07:37:21.921Z,10.98
2022-10-20T07:43:32.140Z,12.60
2022-10-20T07:46:35.034Z,9.90
2022-10-20T07:49:45.329Z,8.68
2022-10-20T07:52:53.187Z,9.20
2022-10-20T07:55:55.798Z,9.07
2022-10-20T07:58:59.102Z,8.77
2022-10-20T08:02:01.901Z,9.47
2022-10-20T08:05:05.250Z,10.27
2022-10-20T08:08:09.179Z,11.40
2022-10-20T08:11:12.074Z,9.00
2022-10-20T08:14:14.715Z,8.70
2022-10-20T08:17:17.312Z,9.23
2022-10-20T08:20:23.598Z,10.98
2022-10-20T08:23:30.338Z,9.97
2022-10-20T08:26:33.123Z,9.27
2022-10-20T08:29:35.730Z,9.45
2022-10-20T08:32:38.796Z,10.02
2022-10-20T08:35:41.707Z,11.43
2022-10-20T08:38:45.701Z,9.90
2022-10-20T08:42:09.215Z,9.57
2022-10-20T08:45:16.748Z,8.43
2022-10-20T08:48:23.455Z,10.43
2022-10-20T08:51:30.207Z,9.05
2022-10-20T08:54:35.536Z,9.20
2022-10-20T08:57:38.619Z,9.40
2022-10-20T09:00:42.055Z,7.93
2022-10-20T09:03:45.130Z,8.52
2022-10-20T09:06:53.281Z,8.00
2022-10-20T09:10:05.523Z,8.17
2022-10-20T09:13:18.472Z,6.80
2022-10-20T09:16:40.472Z,7.90
2022-10-20T09:19:49.048Z,8.30
2022-10-20T09:22:51.768Z,8.68
2022-10-20T09:25:55.680Z,7.97
2022-10-20T09:29:12.831Z,7.47
2022-10-20T09:35:49.130Z,9.60
2022-10-20T09:38:54.141Z,9.10
2022-10-20T09:42:05.251Z,7.93
2022-10-20T09:45:17.435Z,7.43
2022-10-20T09:48:24.968Z,7.45
2022-10-20T09:51:29.639Z,7.20
2022-10-20T09:54:32.329Z,8.48
2022-10-20T09:57:37.149Z,8.07
2022-10-20T10:00:46.986Z,7.73
2022-10-20T10:03:51.751Z,8.77
2022-10-20T10:06:54.288Z,7.18
2022-10-20T10:10:00.387Z,8.63
2022-10-20T10:16:16.289Z,6.90
2022-10-20T10:19:21.780Z,8.90
2022-10-20T10:22:24.719Z,8.00
2022-10-20T10:25:28.904Z,8.23
2022-10-20T10:28:36.052Z,8.13
2022-10-20T10:31:50.898Z,7.40
2022-10-20T10:35:13.713Z,7.10
2022-10-20T10:38:16.423Z,5.80
2022-10-20T10:41:26.226Z,6.95
2022-10-20T10:44:44.952Z,8.50
2022-10-20T10:48:10.671Z,7.17
2022-10-20T10:51:24.306Z,8.05
2022-10-20T10:54:41.622Z,6.82
2022-10-20T10:57:55.916Z,6.60
2022-10-20T11:01:08.523Z,6.90
2022-10-20T11:04:59.708Z,6.57
2022-10-20T11:08:18.110Z,5.82
2022-10-20T11:11:28.816Z,6.22
2022-10-20T11:14:41.942Z,5.78
2022-10-20T11:17:56.763Z,6.27
2022-10-20T11:21:09.426Z,9.00
2022-10-20T11:24:46.774Z,8.02
2022-10-20T11:27:50.519Z,4.82
2022-10-20T11:30:53.148Z,6.95
2022-10-20T11:34:02.586Z,6.47
2022-10-20T11:37:14.208Z,6.00
2022-10-20T11:40:24.105Z,7.22
2022-10-20T11:43:30.474Z,6.07
2022-10-20T11:46:40.006Z,5.57
2022-10-20T11:49:45.054Z,6.07
2022-10-20T11:53:14.418Z,5.47
2022-10-20T11:56:38.720Z,8.48
2022-10-20T12:00:04.570Z,5.95
2022-10-20T12:03:42.400Z,6.10
2022-10-20T12:06:59.084Z,4.77
2022-10-20T12:10:19.296Z,5.47
2022-10-20T12:13:30.783Z,5.47
2022-10-20T12:17:06.617Z,6.82
2022-10-20T12:21:01.724Z,7.10
2022-10-20T12:24:37.459Z,5.50
2022-10-20T12:27:40.103Z,6.03
2022-10-20T12:30:45.229Z,5.43
2022-10-20T12:34:03.728Z,4.38
2022-10-20T12:37:09.206Z,5.30
2022-10-20T12:40:27.533Z,5.03
2022-10-20T12:43:37.477Z,5.87
2022-10-20T12:46:44.760Z,5.18
2022-10-20T12:49:54.858Z,5.18
2022-10-20T12:53:10.163Z,5.22
2022-10-20T12:56:21.536Z,5.77
2022-10-20T12:59:44.921Z,6.37
2022-10-20T13:02:50.857Z,5.88
2022-10-20T13:05:53.508Z,4.72
2022-10-20T13:09:22.555Z,6.03
2022-10-20T13:12:29.096Z,6.43
2022-10-20T13:15:35.431Z,5.57
2022-10-20T13:18:46.591Z,5.32
2022-10-20T13:21:50.173Z,6.10
2022-10-20T13:24:56.028Z,4.80
2022-10-20T13:28:19.342Z,4.90
2022-10-20T13:31:28.468Z,5.30
2022-10-20T13:34:38.816Z,7.07
2022-10-20T13:37:57.485Z,5.93
2022-10-20T13:41:09.196Z,4.70
2022-10-20T13:44:27.884Z,5.90
2022-10-20T13:47:50.415Z,5.33
2022-10-20T13:50:59.786Z,7.68
2022-10-20T13:54:05.911Z,6.07
2022-10-20T13:57:15.650Z,6.07
2022-10-20T14:00:22.309Z,5.70
2022-10-20T14:03:24.877Z,6.10
2022-10-20T14:06:35.896Z,7.28
2022-10-20T14:09:40.614Z,7.65
2022-10-20T14:12:46.328Z,6.32
2022-10-20T14:15:54.629Z,6.90
2022-10-20T14:19:05.610Z,5.57
2022-10-20T14:22:16.955Z,7.15
2022-10-20T14:25:19.681Z,5.78
2022-10-20T14:28:23.580Z,5.07
2022-10-20T14:31:27.731Z,6.93
2022-10-20T14:34:34.423Z,7.20
2022-10-20T14:37:40.765Z,5.53
2022-10-20T14:40:50.856Z,6.35
2022-10-20T14:43:56.684Z,5.75
2022-10-20T14:47:05.174Z,7.17
2022-10-20T14:50:08.775Z,7.57
2022-10-20T14:53:19.646Z,6.80
2022-10-20T14:56:25.488Z,6.35
2022-10-20T14:59:30.462Z,4.70
2022-10-20T15:02:38.606Z,7.73
2022-10-20T15:05:43.719Z,5.63
2022-10-20T15:09:04.737Z,5.78
2022-10-20T15:12:08.320Z,5.15
2022-10-20T15:15:22.065Z,5.30
2022-10-20T15:18:26.386Z,5.47
2022-10-20T15:21:29.065Z,5.20
2022-10-20T15:24:31.636Z,6.70
2022-10-20T15:27:34.346Z,6.15
2022-10-20T15:30:36.896Z,6.05
2022-10-20T15:33:40.905Z,5.83
2022-10-20T15:36:44.628Z,5.57
2022-10-20T15:39:48.920Z,6.10
2022-10-20T15:42:51.582Z,7.55
2022-10-20T15:45:56.073Z,6.70
2022-10-20T15:49:00.255Z,6.97
2022-10-20T15:52:02.869Z,8.23
2022-10-20T15:55:22.446Z,6.60
2022-10-20T15:58:25.056Z,5.70
2022-10-20T16:01:28.076Z,6.30
2022-10-20T16:04:32.483Z,6.10
2022-10-20T16:07:35.552Z,6.23
2022-10-20T16:10:39.673Z,7.45
2022-10-20T16:13:42.617Z,7.70
2022-10-20T16:16:45.765Z,6.70
2022-10-20T16:19:49.697Z,7.17
2022-10-20T16:22:52.398Z,6.43
2022-10-20T16:25:54.966Z,7.95
2022-10-20T16:28:57.758Z,8.50
2022-10-20T16:32:00.328Z,7.33
2022-10-20T16:35:05.584Z,7.47
2022-10-20T16:38:08.285Z,7.45
2022-10-20T16:41:13.308Z,9.60
2022-10-20T16:44:16.211Z,7.87
2022-10-20T16:47:18.784Z,6.70
2022-10-20T16:50:22.718Z,9.07
2022-10-20T16:53:25.659Z,7.85
2022-10-20T16:56:28.683Z,9.85
2022-10-20T16:59:31.345Z,8.10
2022-10-20T17:02:35.194Z,6.90
2022-10-20T17:05:39.236Z,9.25
2022-10-20T17:08:42.298Z,8.00
2022-10-20T17:11:44.925Z,8.50
2022-10-20T17:14:47.586Z,8.77
2022-10-20T17:17:50.130Z,8.47
2022-10-20T17:20:57.080Z,8.30
2022-10-20T17:24:00.557Z,8.90
2022-10-20T17:27:03.250Z,9.05
2022-10-20T17:30:06.901Z,12.47
2022-10-20T17:33:10.069Z,8.57
2022-10-20T17:36:15.146Z,9.45
2022-10-20T17:39:17.864Z,9.52
2022-10-20T17:42:20.398Z,9.93
2022-10-20T17:45:23.008Z,10.90
2022-10-20T17:48:25.850Z,10.37
2022-10-20T17:51:33.396Z,10.70
2022-10-20T17:54:37.539Z,9.15
2022-10-20T17:57:40.117Z,8.02
2022-10-20T18:00:56.030Z,9.97
2022-10-20T18:04:00.965Z,9.35
2022-10-20T18:07:06.310Z,10.57
2022-10-20T18:10:09.724Z,9.53
2022-10-20T18:13:12.316Z,9.25
2022-10-20T18:16:17.505Z,11.20
2022-10-20T18:19:20.805Z,9.57
2022-10-20T18:22:24.834Z,9.30
2022-10-20T18:25:27.499Z,9.73
2022-10-20T18:28:30.085Z,9.50
2022-10-20T18:31:34.323Z,10.10
2022-10-20T18:34:38.501Z,9.48
2022-10-20T18:37:43.267Z,8.93
2022-10-20T18:40:45.858Z,9.67
2022-10-20T18:43:57.648Z,9.70
2022-10-20T18:47:01.056Z,8.93
2022-10-20T18:50:03.979Z,10.82
2022-10-20T18:53:08.030Z,8.77
2022-10-20T18:56:15.397Z,9.87
2022-10-20T18:59:17.971Z,10.30
2022-10-20T19:02:20.679Z,9.23
2022-10-20T19:05:23.241Z,9.88
2022-10-20T19:08:27.229Z,12.50
2022-10-20T19:11:32.384Z,8.90
2022-10-20T19:14:34.927Z,11.07
2022-10-20T19:17:37.936Z,9.52
2022-10-20T19:20:40.469Z,9.65
2022-10-20T19:23:46.316Z,10.35
2022-10-20T19:26:57.474Z,10.00
2022-10-20T19:30:11.233Z,10.37
2022-10-20T19:33:14.426Z,9.45
2022-10-20T19:36:17.511Z,10.00
2022-10-20T19:39:25.032Z,10.40
2022-10-20T19:42:27.777Z,10.50
2022-10-20T19:45:30.319Z,11.07
2022-10-20T19:48:36.526Z,10.10
2022-10-20T19:51:39.888Z,10.38
2022-10-20T19:54:43.852Z,8.95
2022-10-20T19:57:46.579Z,9.43
2022-10-20T20:00:51.927Z,9.20
2022-10-20T20:03:54.740Z,8.98
2022-10-20T20:07:01.734Z,9.93
2022-10-20T20:10:07.520Z,9.85
2022-10-20T20:13:10.222Z,10.20
2022-10-20T20:16:12.887Z,9.30
2022-10-20T20:19:16.362Z,11.00
2022-10-20T20:22:19.083Z,9.80
2022-10-20T20:25:23.124Z,12.65
2022-10-20T20:28:25.708Z,11.47
2022-10-20T20:31:29.825Z,9.50
2022-10-20T20:34:32.555Z,10.95
2022-10-20T20:37:35.688Z,10.88
2022-10-20T20:40:44.421Z,10.40
2022-10-20T20:43:47.061Z,10.17
2022-10-20T20:46:49.834Z,9.03
2022-10-20T20:49:52.770Z,9.40
2022-10-20T20:52:55.492Z,11.18
2022-10-20T20:56:01.207Z,9.82
2022-10-20T20:59:04.688Z,10.47
2022-10-20T21:02:07.859Z,11.93
2022-10-20T21:05:10.772Z,11.10
2022-10-20T21:08:13.694Z,9.82
2022-10-20T21:11:20.508Z,11.98
2022-10-20T21:14:23.448Z,9.27
2022-10-20T21:17:26.169Z,9.27
2022-10-20T21:20:29.138Z,10.40
2022-10-20T21:23:32.137Z,9.98
2022-10-20T21:26:36.246Z,9.70
2022-10-20T21:29:40.983Z,10.03
2022-10-20T21:32:45.726Z,9.67
2022-10-20T21:35:48.412Z,13.25
2022-10-20T21:38:52.246Z,9.43
2022-10-20T21:41:56.300Z,8.73
2022-10-20T21:44:58.844Z,9.57
2022-10-20T21:48:01.607Z,9.23
2022-10-20T21:51:08.366Z,8.75
2022-10-20T21:54:13.442Z,8.35
2022-10-20T21:57:17.556Z,10.13
2022-10-20T22:00:21.938Z,10.57
2022-10-20T22:03:27.482Z,9.97
2022-10-20T22:06:30.273Z,9.20
2022-10-20T22:09:33.053Z,10.18
2022-10-20T22:15:44.590Z,10.37
2022-10-20T22:18:47.504Z,10.43
2022-10-20T22:21:54.694Z,9.33
2022-10-20T22:24:57.410Z,12.23
2022-10-20T22:28:01.425Z,10.73
2022-10-20T22:31:04.401Z,10.03
2022-10-20T22:34:07.703Z,10.25
2022-10-20T22:37:12.910Z,9.85
2022-10-20T22:40:15.580Z,10.93
2022-10-20T22:43:19.802Z,13.03
2022-10-20T22:46:22.464Z,11.07
2022-10-20T22:49:25.024Z,11.85
2022-10-20T22:52:27.748Z,10.82
2022-10-20T22:55:30.322Z,9.20
2022-10-20T22:58:35.103Z,10.13
2022-10-20T23:01:37.788Z,12.07
2022-10-20T23:04:40.312Z,9.88
2022-10-20T23:07:43.131Z,9.93
2022-10-20T23:10:45.700Z,9.07
2022-10-20T23:13:51.120Z,10.10
2022-10-20T23:16:53.829Z,9.10
2022-10-20T23:19:57.065Z,9.52
2022-10-20T23:22:59.768Z,10.02
2022-10-20T23:26:04.608Z,12.57
2022-10-20T23:29:08.927Z,10.97
2022-10-20T23:32:11.622Z,12.43
2022-10-20T23:35:14.423Z,10.52
2022-10-20T23:38:17.121Z,11.35
2022-10-20T23:41:19.750Z,10.25
2022-10-20T23:44:23.858Z,9.27
2022-10-20T23:47:26.531Z,9.97
2022-10-20T23:50:29.065Z,10.65
2022-10-20T23:53:31.959Z,10.60
2022-10-20T23:56:34.540Z,11.77
2022-10-20T23:59:38.567Z,9.77
